Time;durP1;ratioP1;P1;durP2;ratioP2;P2;SDS_P1;SDS_P2;PMS_P1;PMS_P2;Temp;Humidity;BMP_temperature;BMP_pressure;BME280_temperature;BME280_humidity;BME280_pressure;Samples;Min_cycle;Max_cycle;Signal;HPM_P1;HPM_P2
2023/05/13 00:02:24;;;;;;;29.70;18.40;;;;;;;;;;107806;1248;24326;-78
2023/05/13 00:04:50;;;;;;;21.10;14.40;;;;;;;;;;107914;1250;24244;-77
2023/05/13 00:07:16;;;;;;;24.10;13.10;;;;;;;;;;107897;1247;22947;-78
2023/05/13 00:09:43;;;;;;;24.80;13.70;;;;;;;;;;107917;1248;22515;-79
2023/05/13 00:12:09;;;;;;;16.70;11.80;;;;;;;;;;107929;1252;23088;-78
2023/05/13 00:14:35;;;;;;;26.20;14.00;;;;;;;;;;107902;1248;22515;-78
2023/05/13 00:17:03;;;;;;;25.10;14.00;;;;;;;;;;107860;1247;22786;-77
2023/05/13 00:19:30;;;;;;;27.80;15.50;;;;;;;;;;107899;1248;24259;-77
2023/05/13 00:21:56;;;;;;;21.20;14.60;;;;;;;;;;107860;1248;22452;-78
2023/05/13 00:24:23;;;;;;;24.30;15.30;;;;;;;;;;107839;1253;24513;-78
2023/05/13 00:26:49;;;;;;;19.30;14.20;;;;;;;;;;107880;1248;26352;-78
2023/05/13 00:29:15;;;;;;;21.90;14.00;;;;;;;;;;107852;1252;22543;-77
2023/05/13 00:31:42;;;;;;;24.40;17.40;;;;;;;;;;107868;1248;22642;-78
2023/05/13 00:34:08;;;;;;;23.20;14.60;;;;;;;;;;107933;1248;23787;-77
2023/05/13 00:36:34;;;;;;;24.70;15.10;;;;;;;;;;107896;1248;22519;-77
2023/05/13 00:39:01;;;;;;;22.10;14.20;;;;;;;;;;107930;1247;22452;-78
2023/05/13 00:41:27;;;;;;;23.60;13.80;;;;;;;;;;107951;1248;25210;-78
2023/05/13 00:43:55;;;;;;;21.70;13.40;;;;;;;;;;107898;1248;23378;-77
2023/05/13 00:46:21;;;;;;;18.30;12.40;;;;;;;;;;107723;1247;22609;-77
2023/05/13 00:48:48;;;;;;;21.90;13.80;;;;;;;;;;109034;1248;22977;-78
2023/05/13 00:51:14;;;;;;;23.50;14.80;;;;;;;;;;107870;1248;23686;-78
2023/05/13 00:53:41;;;;;;;19.70;16.50;;;;;;;;;;107946;1248;22521;-78
2023/05/13 00:56:07;;;;;;;24.90;16.70;;;;;;;;;;107704;1248;22518;-78
2023/05/13 00:58:33;;;;;;;23.00;15.00;;;;;;;;;;107854;1247;22530;-78
2023/05/13 01:01:11;;;;;;;23.10;14.60;;;;;;;;;;107860;1252;26476;-77
2023/05/13 01:03:52;;;;;;;23.20;14.20;;;;;;;;;;107675;1251;22515;-78
2023/05/13 01:06:20;;;;;;;23.80;14.60;;;;;;;;;;107681;1250;22559;-78
2023/05/13 01:08:56;;;;;;;20.70;13.60;;;;;;;;;;107704;1251;24205;-77
2023/05/13 01:11:25;;;;;;;19.10;13.00;;;;;;;;;;107700;1251;24358;-78
2023/05/13 01:13:53;;;;;;;23.70;13.20;;;;;;;;;;107708;1251;23147;-78
2023/05/13 01:16:23;;;;;;;21.00;13.10;;;;;;;;;;107700;1255;25357;-78
2023/05/13 01:18:52;;;;;;;23.60;13.10;;;;;;;;;;107645;1251;22935;-77
2023/05/13 01:21:22;;;;;;;25.60;15.00;;;;;;;;;;107622;1251;22525;-77
2023/05/13 01:23:49;;;;;;;25.20;14.10;;;;;;;;;;107652;1256;23137;-77
2023/05/13 01:26:15;;;;;;;21.90;12.20;;;;;;;;;;110365;1250;22309;-78
2023/05/13 01:28:41;;;;;;;24.60;14.40;;;;;;;;;;110899;1247;22436;-77
2023/05/13 01:31:09;;;;;;;26.70;16.10;;;;;;;;;;111010;1248;23088;-77
2023/05/13 01:33:36;;;;;;;24.90;16.70;;;;;;;;;;111010;1248;22885;-77
2023/05/13 01:36:03;;;;;;;25.50;16.60;;;;;;;;;;110995;1248;22310;-79
2023/05/13 01:38:29;;;;;;;20.40;13.70;;;;;;;;;;110859;1249;22275;-79
2023/05/13 01:40:56;;;;;;;19.80;13.40;;;;;;;;;;110832;1247;22659;-77
2023/05/13 01:43:22;;;;;;;19.80;13.30;;;;;;;;;;111040;1247;23164;-77
2023/05/13 01:45:48;;;;;;;22.10;12.40;;;;;;;;;;110980;1248;22345;-78
2023/05/13 01:48:15;;;;;;;18.70;12.90;;;;;;;;;;111025;1247;22427;-79
2023/05/13 01:50:41;;;;;;;24.10;12.90;;;;;;;;;;111012;1247;22177;-78
2023/05/13 01:53:07;;;;;;;21.30;14.30;;;;;;;;;;110990;1248;22872;-77
2023/05/13 01:55:34;;;;;;;20.10;13.20;;;;;;;;;;110998;1247;22495;-77
2023/05/13 01:58:00;;;;;;;21.40;13.20;;;;;;;;;;111046;1247;23148;-77
2023/05/13 02:00:26;;;;;;;20.50;12.60;;;;;;;;;;110871;1248;131331;-79
2023/05/13 02:02:53;;;;;;;21.00;12.20;;;;;;;;;;110966;1248;22386;-79
2023/05/13 02:05:19;;;;;;;23.20;13.40;;;;;;;;;;111032;1247;22329;-77
2023/05/13 02:07:45;;;;;;;18.90;11.80;;;;;;;;;;111033;1251;22312;-77
2023/05/13 02:10:11;;;;;;;21.00;11.30;;;;;;;;;;110975;1248;22225;-78
2023/05/13 02:12:38;;;;;;;16.60;11.20;;;;;;;;;;108511;1248;22522;-77
2023/05/13 02:15:04;;;;;;;17.30;10.90;;;;;;;;;;107849;1253;25303;-79
2023/05/13 02:17:31;;;;;;;17.20;11.10;;;;;;;;;;107864;1248;22719;-78
2023/05/13 02:19:57;;;;;;;19.20;12.40;;;;;;;;;;107814;1250;22531;-77
2023/05/13 02:22:23;;;;;;;19.10;13.10;;;;;;;;;;107667;1250;22727;-77
2023/05/13 02:24:50;;;;;;;19.40;14.50;;;;;;;;;;107671;1251;22524;-77
2023/05/13 02:27:16;;;;;;;18.20;11.80;;;;;;;;;;107653;1253;25345;-78
2023/05/13 02:29:42;;;;;;;26.20;18.50;;;;;;;;;;107832;1253;22533;-77
2023/05/13 02:32:09;;;;;;;28.20;16.80;;;;;;;;;;107888;1248;25303;-77
2023/05/13 02:34:35;;;;;;;22.70;13.70;;;;;;;;;;107934;1253;22515;-79
2023/05/13 02:37:02;;;;;;;18.90;13.40;;;;;;;;;;107938;1247;22518;-77
2023/05/13 02:39:28;;;;;;;21.80;13.70;;;;;;;;;;107693;1253;22524;-77
2023/05/13 02:41:55;;;;;;;22.80;15.80;;;;;;;;;;107870;1248;22522;-78
2023/05/13 02:44:21;;;;;;;24.80;16.10;;;;;;;;;;111022;1248;22388;-79
2023/05/13 02:46:47;;;;;;;22.80;15.20;;;;;;;;;;111010;1248;22811;-79
2023/05/13 02:49:14;;;;;;;28.60;17.10;;;;;;;;;;111012;1248;22226;-79
2023/05/13 02:51:40;;;;;;;20.40;14.90;;;;;;;;;;110998;1248;22287;-78
2023/05/13 02:54:06;;;;;;;22.50;15.30;;;;;;;;;;110969;1252;22905;-77
2023/05/13 02:56:33;;;;;;;25.10;15.10;;;;;;;;;;111008;1247;22217;-79
2023/05/13 02:58:59;;;;;;;22.70;16.00;;;;;;;;;;110984;1247;23176;-79
2023/05/13 03:01:26;;;;;;;22.20;13.80;;;;;;;;;;108992;1248;22541;-77
2023/05/13 03:03:52;;;;;;;22.50;12.40;;;;;;;;;;107873;1253;22558;-77
2023/05/13 03:06:19;;;;;;;26.80;11.50;;;;;;;;;;107893;1254;22531;-77
2023/05/13 03:08:45;;;;;;;17.90;11.70;;;;;;;;;;107894;1248;24243;-78
2023/05/13 03:11:11;;;;;;;17.70;11.40;;;;;;;;;;107929;1248;23773;-77
2023/05/13 03:13:38;;;;;;;16.50;11.70;;;;;;;;;;107913;1248;22514;-77
2023/05/13 03:16:04;;;;;;;18.00;11.80;;;;;;;;;;107861;1253;22814;-78
2023/05/13 03:18:31;;;;;;;20.70;11.80;;;;;;;;;;107863;1248;22560;-77
2023/05/13 03:20:57;;;;;;;21.80;15.40;;;;;;;;;;107880;1248;22525;-78
2023/05/13 03:23:24;;;;;;;22.30;15.00;;;;;;;;;;107863;1248;25349;-78
2023/05/13 03:25:50;;;;;;;24.50;14.60;;;;;;;;;;107925;1248;24884;-79
2023/05/13 03:28:16;;;;;;;17.10;12.00;;;;;;;;;;107874;1250;24212;-78
2023/05/13 03:30:43;;;;;;;16.90;11.40;;;;;;;;;;107874;1253;25213;-79
2023/05/13 03:33:09;;;;;;;30.20;15.10;;;;;;;;;;107903;1247;25463;-78
2023/05/13 03:35:36;;;;;;;21.90;13.70;;;;;;;;;;107911;1251;23710;-78
2023/05/13 03:38:02;;;;;;;21.80;14.90;;;;;;;;;;107888;1253;25281;-78
2023/05/13 03:40:28;;;;;;;21.10;13.30;;;;;;;;;;107844;1253;22531;-77
2023/05/13 03:42:55;;;;;;;24.30;15.40;;;;;;;;;;107676;1248;24180;-78
2023/05/13 03:45:21;;;;;;;26.70;15.20;;;;;;;;;;107685;1247;22511;-78
2023/05/13 03:47:47;;;;;;;21.90;14.20;;;;;;;;;;107868;1253;25217;-77
2023/05/13 03:50:14;;;;;;;22.80;14.30;;;;;;;;;;107964;1248;23253;-78
2023/05/13 03:52:40;;;;;;;23.60;15.40;;;;;;;;;;107921;1247;22536;-78
2023/05/13 03:55:07;;;;;;;23.40;12.90;;;;;;;;;;107909;1247;22934;-78
2023/05/13 03:57:33;;;;;;;24.80;13.00;;;;;;;;;;107785;1252;22514;-79
2023/05/13 03:59:59;;;;;;;20.70;13.20;;;;;;;;;;107658;1251;23174;-79
2023/05/13 04:02:26;;;;;;;18.40;11.90;;;;;;;;;;107809;1253;23180;-79
2023/05/13 04:04:52;;;;;;;18.80;12.60;;;;;;;;;;107878;1247;22633;-78
2023/05/13 04:07:18;;;;;;;23.30;14.40;;;;;;;;;;107849;1248;22605;-79
2023/05/13 04:09:45;;;;;;;20.60;13.40;;;;;;;;;;107926;1248;24334;-77
2023/05/13 04:12:11;;;;;;;21.60;14.10;;;;;;;;;;107884;1247;22586;-79
2023/05/13 04:14:38;;;;;;;25.80;15.10;;;;;;;;;;107893;1252;25217;-77
2023/05/13 04:17:05;;;;;;;28.30;16.00;;;;;;;;;;107828;1248;22525;-77
2023/05/13 04:19:31;;;;;;;23.10;15.40;;;;;;;;;;107866;1248;22532;-78
2023/05/13 04:21:57;;;;;;;23.60;15.30;;;;;;;;;;107855;1248;22514;-77
2023/05/13 04:24:24;;;;;;;20.60;14.10;;;;;;;;;;107900;1252;26075;-79
2023/05/13 04:26:50;;;;;;;24.90;13.90;;;;;;;;;;107855;1250;25403;-77
2023/05/13 04:29:17;;;;;;;21.80;14.50;;;;;;;;;;107854;1253;22532;-78
2023/05/13 04:31:43;;;;;;;24.60;14.80;;;;;;;;;;107880;1247;22998;-77
2023/05/13 04:34:10;;;;;;;23.80;15.40;;;;;;;;;;107907;1248;24245;-78
2023/05/13 04:36:36;;;;;;;24.50;14.20;;;;;;;;;;107875;1248;22533;-77
2023/05/13 04:39:02;;;;;;;27.20;17.30;;;;;;;;;;107915;1248;22525;-77
2023/05/13 04:41:28;;;;;;;24.80;14.40;;;;;;;;;;107896;1247;24244;-78
2023/05/13 04:43:55;;;;;;;26.50;14.50;;;;;;;;;;107891;1247;22977;-77
2023/05/13 04:46:21;;;;;;;22.40;14.10;;;;;;;;;;107864;1247;24187;-77
2023/05/13 04:48:48;;;;;;;21.60;14.40;;;;;;;;;;107877;1247;25330;-78
2023/05/13 04:51:15;;;;;;;17.80;13.00;;;;;;;;;;107845;1252;22565;-77
2023/05/13 04:53:41;;;;;;;17.40;11.70;;;;;;;;;;108555;1247;23208;-78
2023/05/13 04:56:07;;;;;;;20.20;13.80;;;;;;;;;;107886;1253;23152;-78
2023/05/13 04:58:34;;;;;;;17.70;13.00;;;;;;;;;;107916;1247;22855;-79
2023/05/13 05:01:00;;;;;;;18.40;12.40;;;;;;;;;;107949;1248;22511;-77
2023/05/13 05:03:27;;;;;;;19.10;12.20;;;;;;;;;;107900;1251;22641;-77
2023/05/13 05:05:53;;;;;;;17.00;12.50;;;;;;;;;;107774;1249;23154;-79
2023/05/13 05:08:19;;;;;;;21.40;11.80;;;;;;;;;;107792;1248;25272;-78
2023/05/13 05:10:46;;;;;;;21.30;12.30;;;;;;;;;;107856;1253;22549;-79
2023/05/13 05:13:12;;;;;;;19.90;12.80;;;;;;;;;;107790;1251;22515;-78
2023/05/13 05:15:38;;;;;;;15.00;10.40;;;;;;;;;;107675;1250;22522;-77
2023/05/13 05:18:05;;;;;;;14.40;11.00;;;;;;;;;;107635;1251;22724;-77
2023/05/13 05:20:32;;;;;;;17.00;11.50;;;;;;;;;;107738;1247;26383;-78
2023/05/13 05:22:58;;;;;;;16.80;10.50;;;;;;;;;;107887;1247;25097;-79
2023/05/13 05:25:25;;;;;;;11.40;8.80;;;;;;;;;;107884;1247;22637;-77
2023/05/13 05:27:51;;;;;;;18.30;10.50;;;;;;;;;;107910;1247;22588;-77
2023/05/13 05:30:17;;;;;;;22.40;11.50;;;;;;;;;;107891;1247;22630;-78
2023/05/13 05:32:44;;;;;;;18.60;11.90;;;;;;;;;;107879;1254;22558;-77
2023/05/13 05:35:10;;;;;;;16.60;12.00;;;;;;;;;;107866;1247;22518;-79
2023/05/13 05:37:36;;;;;;;18.80;11.40;;;;;;;;;;108587;1252;22572;-77
2023/05/13 05:40:03;;;;;;;16.70;12.20;;;;;;;;;;107887;1248;22528;-79
2023/05/13 05:42:29;;;;;;;16.90;11.10;;;;;;;;;;107944;1247;22522;-79
2023/05/13 05:44:56;;;;;;;18.60;13.00;;;;;;;;;;107875;1247;22534;-77
2023/05/13 05:47:22;;;;;;;15.50;11.10;;;;;;;;;;107863;1247;25322;-77
2023/05/13 05:49:48;;;;;;;13.30;9.80;;;;;;;;;;107840;1248;22522;-79
2023/05/13 05:52:15;;;;;;;13.70;10.50;;;;;;;;;;107891;1247;23313;-77
2023/05/13 05:54:41;;;;;;;15.80;10.30;;;;;;;;;;107848;1247;22643;-79
2023/05/13 05:57:07;;;;;;;19.10;11.30;;;;;;;;;;107843;1247;22536;-79
2023/05/13 05:59:33;;;;;;;18.20;12.00;;;;;;;;;;107870;1247;22545;-80
2023/05/13 06:02:00;;;;;;;16.50;11.60;;;;;;;;;;107949;1247;23712;-80
2023/05/13 06:04:26;;;;;;;16.50;11.70;;;;;;;;;;108014;1248;23895;-76
2023/05/13 06:06:53;;;;;;;16.80;11.90;;;;;;;;;;108069;1247;24199;-78
2023/05/13 06:09:19;;;;;;;19.90;13.30;;;;;;;;;;108135;1247;26442;-77
2023/05/13 06:11:46;;;;;;;16.30;10.40;;;;;;;;;;107981;1251;25395;-77
2023/05/13 06:14:12;;;;;;;14.90;10.80;;;;;;;;;;107842;1249;22529;-78
2023/05/13 06:16:38;;;;;;;16.90;11.60;;;;;;;;;;107842;1253;22533;-77
2023/05/13 06:19:05;;;;;;;16.00;8.50;;;;;;;;;;107686;1250;22538;-77
2023/05/13 06:21:31;;;;;;;12.00;8.80;;;;;;;;;;107637;1250;25453;-78
2023/05/13 06:23:57;;;;;;;14.50;8.90;;;;;;;;;;107666;1253;22984;-77
2023/05/13 06:26:24;;;;;;;11.40;8.90;;;;;;;;;;107652;1251;23083;-78
2023/05/13 06:28:50;;;;;;;14.00;9.70;;;;;;;;;;107698;1248;24141;-79
2023/05/13 06:31:16;;;;;;;15.60;9.20;;;;;;;;;;107834;1247;22629;-78
2023/05/13 06:33:43;;;;;;;12.20;9.10;;;;;;;;;;107898;1247;22532;-79
2023/05/13 06:36:09;;;;;;;14.30;8.70;;;;;;;;;;107837;1247;25446;-77
2023/05/13 06:38:35;;;;;;;11.20;9.10;;;;;;;;;;107919;1253;22540;-78
2023/05/13 06:41:02;;;;;;;9.10;7.00;;;;;;;;;;107867;1248;25515;-77
2023/05/13 06:43:28;;;;;;;9.20;6.30;;;;;;;;;;107894;1248;22601;-79
2023/05/13 06:45:55;;;;;;;16.30;6.90;;;;;;;;;;107822;1247;22521;-79
2023/05/13 06:48:21;;;;;;;9.90;6.20;;;;;;;;;;107864;1248;25195;-80
2023/05/13 06:50:48;;;;;;;10.70;6.00;;;;;;;;;;107886;1253;22571;-79
2023/05/13 06:53:15;;;;;;;8.30;6.50;;;;;;;;;;107813;1248;22551;-79
2023/05/13 06:55:41;;;;;;;9.20;6.20;;;;;;;;;;107828;1252;23016;-77
2023/05/13 06:58:08;;;;;;;11.40;7.60;;;;;;;;;;107793;1253;22984;-77
2023/05/13 07:00:38;;;;;;;9.20;6.10;;;;;;;;;;107856;1247;24179;-79
2023/05/13 07:03:04;;;;;;;11.70;6.40;;;;;;;;;;108183;1247;23197;-77
2023/05/13 07:05:33;;;;;;;6.30;4.70;;;;;;;;;;107932;1247;22517;-79
2023/05/13 07:08:05;;;;;;;10.60;5.90;;;;;;;;;;107890;1247;25015;-77
2023/05/13 07:10:32;;;;;;;11.80;5.30;;;;;;;;;;107847;1247;23275;-77
2023/05/13 07:13:02;;;;;;;8.10;5.30;;;;;;;;;;108752;1247;25566;-77
2023/05/13 07:15:28;;;;;;;8.80;4.90;;;;;;;;;;107819;1247;22605;-77
2023/05/13 07:17:55;;;;;;;6.30;4.80;;;;;;;;;;107852;1247;25408;-77
2023/05/13 07:20:21;;;;;;;6.30;4.70;;;;;;;;;;107841;1247;24366;-77
2023/05/13 07:22:48;;;;;;;9.30;4.80;;;;;;;;;;108378;1247;22529;-79
2023/05/13 07:25:15;;;;;;;5.90;4.60;;;;;;;;;;107862;1247;25261;-77
2023/05/13 07:27:41;;;;;;;6.40;4.30;;;;;;;;;;107853;1248;25328;-77
2023/05/13 07:30:08;;;;;;;5.40;4.40;;;;;;;;;;107797;1247;22530;-78
2023/05/13 07:32:35;;;;;;;6.20;4.10;;;;;;;;;;107851;1247;23224;-77
2023/05/13 07:35:02;;;;;;;4.40;2.90;;;;;;;;;;107662;1248;23131;-78
2023/05/13 07:37:28;;;;;;;9.20;3.80;;;;;;;;;;107789;1247;22534;-79
2023/05/13 07:39:55;;;;;;;16.50;4.10;;;;;;;;;;107809;1250;22619;-78
2023/05/13 07:42:21;;;;;;;5.50;2.60;;;;;;;;;;107698;1253;22554;-79
2023/05/13 07:44:47;;;;;;;4.20;2.60;;;;;;;;;;107686;1251;22574;-77
2023/05/13 07:47:14;;;;;;;5.40;3.00;;;;;;;;;;107670;1251;23251;-78
2023/05/13 07:49:40;;;;;;;3.80;2.30;;;;;;;;;;107688;1251;24422;-78
2023/05/13 07:52:06;;;;;;;7.00;2.50;;;;;;;;;;107713;1247;23586;-78
2023/05/13 07:54:33;;;;;;;4.60;2.40;;;;;;;;;;107851;1248;22829;-79
2023/05/13 07:56:59;;;;;;;4.80;2.90;;;;;;;;;;107757;1247;22528;-80
2023/05/13 07:59:25;;;;;;;4.70;2.50;;;;;;;;;;107817;1247;25487;-78
2023/05/13 08:01:52;;;;;;;8.30;4.40;;;;;;;;;;107922;1247;22543;-79
2023/05/13 08:04:18;;;;;;;3.70;2.80;;;;;;;;;;107868;1248;22589;-78
2023/05/13 08:06:45;;;;;;;4.70;2.70;;;;;;;;;;107860;1248;22533;-78
2023/05/13 08:09:13;;;;;;;5.20;2.40;;;;;;;;;;107857;1247;25513;-78
2023/05/13 08:11:39;;;;;;;5.50;2.50;;;;;;;;;;107846;1247;22520;-78
2023/05/13 08:14:05;;;;;;;9.10;3.20;;;;;;;;;;107815;1247;24271;-78
2023/05/13 08:16:35;;;;;;;7.10;3.20;;;;;;;;;;107867;1247;22534;-80
2023/05/13 08:19:01;;;;;;;4.20;2.50;;;;;;;;;;107822;1248;22560;-78
2023/05/13 08:21:27;;;;;;;5.30;3.00;;;;;;;;;;108025;1247;22549;-81
2023/05/13 08:23:54;;;;;;;4.70;2.70;;;;;;;;;;107830;1247;22530;-80
2023/05/13 08:26:21;;;;;;;8.10;2.50;;;;;;;;;;107958;1247;25469;-78
2023/05/13 08:28:47;;;;;;;6.00;2.90;;;;;;;;;;107840;1252;26586;-78
2023/05/13 08:31:14;;;;;;;5.40;2.40;;;;;;;;;;107931;1252;25318;-78
2023/05/13 08:33:46;;;;;;;3.40;3.10;;;;;;;;;;107868;1247;22538;-78
2023/05/13 08:36:12;;;;;;;6.20;1.80;;;;;;;;;;107960;1248;22629;-78
2023/05/13 08:38:41;;;;;;;15.60;2.80;;;;;;;;;;107675;1248;22527;-80
2023/05/13 08:41:09;;;;;;;3.70;2.30;;;;;;;;;;107844;1247;24113;-78
2023/05/13 08:43:35;;;;;;;6.40;2.30;;;;;;;;;;107919;1248;26605;-79
2023/05/13 08:46:02;;;;;;;11.60;6.40;;;;;;;;;;107633;1254;22521;-77
2023/05/13 08:48:29;;;;;;;5.80;3.30;;;;;;;;;;107893;1247;24196;-80
2023/05/13 08:50:55;;;;;;;5.70;3.00;;;;;;;;;;107636;1248;22579;-77
2023/05/13 08:53:22;;;;;;;9.90;3.10;;;;;;;;;;107805;1247;25493;-79
2023/05/13 08:55:49;;;;;;;5.40;2.30;;;;;;;;;;107658;1247;22529;-78
2023/05/13 08:58:15;;;;;;;9.70;4.60;;;;;;;;;;107880;1247;22525;-78
2023/05/13 09:00:42;;;;;;;7.30;4.10;;;;;;;;;;107897;1247;25214;-79
2023/05/13 09:03:08;;;;;;;4.70;3.60;;;;;;;;;;107843;1247;24101;-78
2023/05/13 09:05:35;;;;;;;6.20;3.50;;;;;;;;;;107857;1247;22545;-79
2023/05/13 09:08:08;;;;;;;5.80;2.90;;;;;;;;;;107861;1248;22540;-79
2023/05/13 09:10:35;;;;;;;4.80;2.80;;;;;;;;;;107823;1248;25392;-79
2023/05/13 09:13:01;;;;;;;4.30;2.60;;;;;;;;;;107746;1249;23509;-80
2023/05/13 09:15:28;;;;;;;3.10;2.50;;;;;;;;;;107699;1249;23221;-78
2023/05/13 09:18:04;;;;;;;7.10;3.50;;;;;;;;;;107606;1250;24366;-78
2023/05/13 09:20:30;;;;;;;7.30;2.50;;;;;;;;;;107758;1248;22511;-79
2023/05/13 09:23:00;;;;;;;4.90;2.50;;;;;;;;;;107874;1248;22515;-79
2023/05/13 09:25:27;;;;;;;5.00;2.80;;;;;;;;;;107894;1247;25335;-79
2023/05/13 09:27:56;;;;;;;4.50;2.60;;;;;;;;;;107829;1247;25364;-78
2023/05/13 09:30:32;;;;;;;6.60;2.30;;;;;;;;;;107841;1252;24507;-78
2023/05/13 09:33:08;;;;;;;6.10;3.00;;;;;;;;;;107804;1253;25380;-78
2023/05/13 09:35:39;;;;;;;6.50;3.00;;;;;;;;;;107829;1247;22524;-78
2023/05/13 09:38:18;;;;;;;4.50;2.60;;;;;;;;;;107862;1247;22594;-78
2023/05/13 09:40:48;;;;;;;5.30;2.30;;;;;;;;;;107892;1247;22624;-78
2023/05/13 09:43:15;;;;;;;5.20;2.70;;;;;;;;;;107826;1250;23663;-79
2023/05/13 09:45:41;;;;;;;7.00;2.80;;;;;;;;;;107712;1247;22617;-80
2023/05/13 09:48:08;;;;;;;8.40;2.50;;;;;;;;;;107811;1248;25235;-78
2023/05/13 09:50:34;;;;;;;4.00;2.60;;;;;;;;;;107852;1247;23338;-78
2023/05/13 09:53:10;;;;;;;7.70;2.70;;;;;;;;;;107809;1248;22535;-77
2023/05/13 09:55:37;;;;;;;3.60;2.30;;;;;;;;;;107715;1249;25360;-79
2023/05/13 09:58:10;;;;;;;7.10;3.30;;;;;;;;;;107778;1247;24281;-78
2023/05/13 10:00:38;;;;;;;2.60;2.30;;;;;;;;;;107884;1247;25217;-78
2023/05/13 10:03:04;;;;;;;5.50;3.40;;;;;;;;;;108609;1248;22548;-78
2023/05/13 10:05:31;;;;;;;4.80;3.00;;;;;;;;;;107922;1248;24866;-78
2023/05/13 10:07:57;;;;;;;3.30;2.30;;;;;;;;;;107646;1247;25346;-79
2023/05/13 10:10:24;;;;;;;3.40;2.30;;;;;;;;;;107873;1247;24686;-79
2023/05/13 10:12:51;;;;;;;3.90;2.50;;;;;;;;;;107885;1247;24252;-79
2023/05/13 10:15:17;;;;;;;3.40;1.90;;;;;;;;;;107839;1248;22518;-79
2023/05/13 10:17:44;;;;;;;6.90;3.70;;;;;;;;;;107676;1247;24095;-80
2023/05/13 10:20:10;;;;;;;5.80;2.60;;;;;;;;;;107646;1247;22537;-80
2023/05/13 10:22:36;;;;;;;4.00;2.20;;;;;;;;;;107858;1248;22518;-78
2023/05/13 10:25:04;;;;;;;3.90;1.70;;;;;;;;;;107834;1247;22519;-80
2023/05/13 10:27:31;;;;;;;4.30;3.00;;;;;;;;;;107404;1250;61222;-78
2023/05/13 10:29:58;;;;;;;4.60;2.10;;;;;;;;;;106996;1247;61351;-79
2023/05/13 10:32:26;;;;;;;6.00;2.40;;;;;;;;;;107491;1248;60904;-78
2023/05/13 10:34:54;;;;;;;5.80;3.90;;;;;;;;;;107116;1247;61212;-78
2023/05/13 10:37:33;;;;;;;5.00;2.30;;;;;;;;;;106986;1247;61215;-77
2023/05/13 10:40:15;;;;;;;6.50;2.70;;;;;;;;;;106960;1248;62275;-77
2023/05/13 10:43:00;;;;;;;3.00;1.90;;;;;;;;;;107452;1252;59588;-78
2023/05/13 10:45:26;;;;;;;6.40;1.80;;;;;;;;;;106992;1247;61289;-77
2023/05/13 10:47:53;;;;;;;5.30;2.30;;;;;;;;;;107012;1247;61221;-79
2023/05/13 10:50:23;;;;;;;3.80;2.10;;;;;;;;;;107434;1247;61136;-79
2023/05/13 10:52:50;;;;;;;3.80;2.20;;;;;;;;;;107711;1247;61076;-77
2023/05/13 10:55:17;;;;;;;4.20;2.30;;;;;;;;;;107150;1247;61087;-77
2023/05/13 10:58:02;;;;;;;7.10;2.20;;;;;;;;;;106827;1250;61251;-77
2023/05/13 11:00:29;;;;;;;9.00;2.60;;;;;;;;;;106942;1253;61323;-77
2023/05/13 11:02:56;;;;;;;5.00;1.70;;;;;;;;;;107081;1248;61178;-79
2023/05/13 11:05:22;;;;;;;4.40;2.00;;;;;;;;;;107034;1248;61320;-79
2023/05/13 11:07:55;;;;;;;3.20;2.00;;;;;;;;;;106976;1251;61240;-79
2023/05/13 11:10:25;;;;;;;4.60;2.30;;;;;;;;;;106998;1248;61320;-79
2023/05/13 11:13:08;;;;;;;8.20;3.00;;;;;;;;;;107109;1247;61205;-79
2023/05/13 11:15:44;;;;;;;6.20;2.60;;;;;;;;;;107258;1251;61288;-77
2023/05/13 11:18:11;;;;;;;4.00;2.60;;;;;;;;;;107693;1247;61211;-79
2023/05/13 11:20:37;;;;;;;5.20;2.40;;;;;;;;;;108100;1247;25359;-77
2023/05/13 11:23:03;;;;;;;4.90;2.00;;;;;;;;;;108036;1247;22765;-78
2023/05/13 11:25:30;;;;;;;3.90;2.20;;;;;;;;;;108083;1247;25360;-79
2023/05/13 11:27:56;;;;;;;3.70;2.00;;;;;;;;;;107973;1248;25370;-79
2023/05/13 11:30:24;;;;;;;3.40;1.80;;;;;;;;;;107867;1247;25217;-77
2023/05/13 11:32:51;;;;;;;6.80;1.60;;;;;;;;;;107831;1247;22549;-78
2023/05/13 11:35:20;;;;;;;2.30;1.70;;;;;;;;;;107895;1247;22533;-77
2023/05/13 11:37:48;;;;;;;3.60;2.10;;;;;;;;;;107846;1247;22530;-77
2023/05/13 11:40:24;;;;;;;5.00;2.00;;;;;;;;;;107674;1248;22515;-78
2023/05/13 11:42:50;;;;;;;9.10;3.20;;;;;;;;;;107860;1247;24223;-78
2023/05/13 11:45:16;;;;;;;4.00;2.50;;;;;;;;;;107660;1247;22519;-76
2023/05/13 11:47:43;;;;;;;5.00;2.50;;;;;;;;;;108002;1247;22654;-79
2023/05/13 11:50:17;;;;;;;5.50;3.40;;;;;;;;;;107891;1247;22543;-77
2023/05/13 11:52:43;;;;;;;4.70;2.10;;;;;;;;;;107833;1251;22723;-77
2023/05/13 11:55:09;;;;;;;3.80;2.30;;;;;;;;;;107752;1251;22545;-78
2023/05/13 11:57:36;;;;;;;3.70;2.00;;;;;;;;;;107766;1251;22710;-79
2023/05/13 12:00:09;;;;;;;3.20;1.90;;;;;;;;;;107708;1250;25374;-78
2023/05/13 12:02:36;;;;;;;8.00;2.20;;;;;;;;;;107795;1247;24870;-77
2023/05/13 12:05:03;;;;;;;11.30;2.40;;;;;;;;;;107842;1248;25204;-79
2023/05/13 12:07:30;;;;;;;2.90;2.00;;;;;;;;;;107872;1247;22517;-79
2023/05/13 12:09:57;;;;;;;5.60;2.00;;;;;;;;;;107876;1247;22520;-78
2023/05/13 12:12:23;;;;;;;4.20;2.10;;;;;;;;;;107811;1253;23250;-76
2023/05/13 12:14:49;;;;;;;3.20;1.90;;;;;;;;;;107601;1248;22514;-78
2023/05/13 12:17:16;;;;;;;5.90;2.30;;;;;;;;;;107874;1251;22524;-78
2023/05/13 12:20:01;;;;;;;5.30;2.70;;;;;;;;;;107952;1250;22565;-78
2023/05/13 12:22:28;;;;;;;5.10;2.10;;;;;;;;;;108486;1247;22535;-77
2023/05/13 12:24:54;;;;;;;2.90;2.00;;;;;;;;;;107532;1247;59001;-77
2023/05/13 12:27:21;;;;;;;4.50;2.00;;;;;;;;;;108048;1247;22591;-78
2023/05/13 12:29:48;;;;;;;11.60;2.10;;;;;;;;;;107963;1247;22806;-78
2023/05/13 12:32:15;;;;;;;5.90;2.00;;;;;;;;;;108029;1247;26456;-77
2023/05/13 12:34:42;;;;;;;9.10;2.50;;;;;;;;;;107925;1247;22621;-78
2023/05/13 12:37:10;;;;;;;4.60;2.60;;;;;;;;;;107750;1247;24247;-78
2023/05/13 12:39:36;;;;;;;3.70;2.50;;;;;;;;;;107864;1247;23252;-77
2023/05/13 12:42:03;;;;;;;4.20;2.20;;;;;;;;;;107857;1247;23204;-78
2023/05/13 12:44:29;;;;;;;4.80;2.50;;;;;;;;;;107949;1247;25375;-77
2023/05/13 12:47:00;;;;;;;8.70;5.30;;;;;;;;;;107849;1251;22536;-78
2023/05/13 12:49:27;;;;;;;33.60;7.80;;;;;;;;;;107898;1247;24086;-77
2023/05/13 12:51:55;;;;;;;13.70;7.80;;;;;;;;;;107867;1253;25386;-77
2023/05/13 12:54:21;;;;;;;8.60;4.60;;;;;;;;;;107861;1247;22548;-79
2023/05/13 12:56:48;;;;;;;18.70;10.40;;;;;;;;;;107858;1247;22631;-79
2023/05/13 12:59:15;;;;;;;20.50;11.60;;;;;;;;;;107856;1252;25259;-80
2023/05/13 13:01:42;;;;;;;11.70;7.40;;;;;;;;;;107889;1247;24528;-78
2023/05/13 13:04:08;;;;;;;11.70;8.30;;;;;;;;;;107817;1247;22541;-79
2023/05/13 13:06:34;;;;;;;16.60;9.90;;;;;;;;;;107873;1247;22518;-77
2023/05/13 13:09:00;;;;;;;7.70;5.60;;;;;;;;;;107918;1247;22678;-77
2023/05/13 13:11:27;;;;;;;10.30;7.60;;;;;;;;;;107923;1247;24229;-77
2023/05/13 13:13:53;;;;;;;7.60;4.00;;;;;;;;;;107889;1247;23239;-77
2023/05/13 13:16:20;;;;;;;5.80;3.30;;;;;;;;;;107882;1248;22519;-78
2023/05/13 13:18:48;;;;;;;5.80;3.80;;;;;;;;;;107872;1247;24384;-78
2023/05/13 13:21:15;;;;;;;6.20;4.00;;;;;;;;;;107890;1247;25389;-78
2023/05/13 13:23:41;;;;;;;4.90;3.50;;;;;;;;;;107899;1247;22518;-79
2023/05/13 13:26:07;;;;;;;9.70;6.50;;;;;;;;;;107911;1247;22542;-79
2023/05/13 13:28:34;;;;;;;8.20;4.20;;;;;;;;;;107839;1247;22518;-77
2023/05/13 13:31:00;;;;;;;5.50;4.30;;;;;;;;;;107844;1247;23930;-79
2023/05/13 13:33:27;;;;;;;8.70;4.70;;;;;;;;;;107877;1247;25349;-78
2023/05/13 13:35:53;;;;;;;8.60;5.50;;;;;;;;;;107875;1253;22968;-79
2023/05/13 13:38:19;;;;;;;6.10;4.10;;;;;;;;;;107837;1247;23252;-78
2023/05/13 13:40:46;;;;;;;9.50;5.70;;;;;;;;;;107876;1248;24243;-79
2023/05/13 13:43:12;;;;;;;28.70;14.60;;;;;;;;;;107819;1252;22535;-78
2023/05/13 13:45:39;;;;;;;13.30;7.70;;;;;;;;;;107682;1247;25294;-79
2023/05/13 13:48:05;;;;;;;11.40;6.20;;;;;;;;;;107602;1249;24221;-78
2023/05/13 13:50:32;;;;;;;19.00;10.10;;;;;;;;;;107532;1250;23789;-78
2023/05/13 13:52:58;;;;;;;11.20;6.70;;;;;;;;;;107471;1251;22833;-78
2023/05/13 13:55:25;;;;;;;12.70;6.60;;;;;;;;;;107740;1249;22530;-77
2023/05/13 13:57:51;;;;;;;12.30;6.70;;;;;;;;;;107639;1253;22528;-79
2023/05/13 14:00:18;;;;;;;17.70;7.30;;;;;;;;;;107888;1250;143581;-78
2023/05/13 14:02:44;;;;;;;14.30;8.50;;;;;;;;;;107758;1248;22631;-79
2023/05/13 14:05:11;;;;;;;11.90;8.60;;;;;;;;;;107748;1247;22517;-77
2023/05/13 14:07:37;;;;;;;12.00;6.20;;;;;;;;;;107722;1248;25347;-79
2023/05/13 14:10:04;;;;;;;15.20;11.00;;;;;;;;;;107537;1252;58855;-79
2023/05/13 14:12:31;;;;;;;9.20;5.30;;;;;;;;;;107279;1247;58988;-77
2023/05/13 14:14:57;;;;;;;7.10;5.10;;;;;;;;;;106928;1247;61189;-79
2023/05/13 14:17:23;;;;;;;12.90;5.90;;;;;;;;;;107476;1247;58962;-79